Latest Weather Observations for Leigh Creek

IDS60801

Issued at 7:01 pm CST Wednesday 27 July 2016 (issued every 30 minutes, with the page automatically refreshed every 10 minutes)

About weather observations | Map of weather stations | Latest weather observations for SA | Other Formats
Station Details ID: 017110 Name: LEIGH CREEK AIRPORT Lat: -30.60 Lon: 138.42 Height: 258.8 m
Data from the previous 72 hours. | See also: Recent months at Leigh Creek
Date/Time
CST
Temp
°C
App
Temp
°C
Dew
Point
°C
Rel
Hum
%
Delta-T
°C
Wind Press
QNH
hPa
Press
MSL
hPa
Rain since
9am
mm
Dir  Spd
km/h
Gust
km/h
Spd
kts
Gust
kts
27/07:00pm 10.7 7.0 4.2 64 2.9 SSW 13 17 7 9 1027.6 1027.9 0.0
27/06:30pm 11.6 6.7 4.3 61 3.3 SSW 19 22 10 12 1027.2 1027.5 0.0
27/06:00pm 12.3 7.8 4.3 58 3.7 SSW 17 20 9 11 1027.0 1027.3 0.0
27/05:30pm 13.3 8.5 4.7 56 4.0 SSW 19 24 10 13 1026.6 1026.8 0.0
27/05:00pm 14.3 9.4 4.9 53 4.4 SSW 20 30 11 16 1026.1 1026.3 0.0
27/04:30pm 14.9 10.0 5.1 52 4.7 SSW 20 28 11 15 1025.6 1025.8 0.0
27/04:00pm 14.9 9.1 4.3 49 5.0 SSW 24 30 13 16 1025.1 1025.3 0.0
27/03:30pm 15.0 10.1 5.0 51 4.7 SSW 20 30 11 16 1024.8 1025.0 0.0
27/03:00pm 15.0 10.1 5.0 51 4.7 SSW 20 30 11 16 1024.5 1024.8 0.0
27/02:30pm 14.6 8.8 4.6 51 4.7 SSW 24 33 13 18 1024.7 1024.9 0.0
27/02:00pm 14.4 9.1 5.0 53 4.5 SSW 22 35 12 19 1024.7 1024.9 0.0
27/01:30pm 14.1 8.7 4.7 53 4.4 SSW 22 33 12 18 1024.8 1025.0 0.0
27/01:00pm 13.3 7.6 5.0 57 3.9 SSW 24 37 13 20 1025.2 1025.4 0.0
27/12:30pm 13.2 7.5 5.1 58 3.8 S 24 33 13 18 1025.6 1025.8 0.0
27/12:00pm 13.5 7.9 5.4 58 3.8 SSW 24 32 13 17 1025.6 1025.8 0.0
27/11:30am 13.1 7.6 6.0 62 3.4 SSW 24 30 13 16 1025.7 1025.9 0.0
27/11:00am 12.3 7.1 5.7 64 3.1 SSW 22 35 12 19 1025.8 1026.0 0.0
27/10:30am 11.8 6.3 5.9 67 2.8 SSW 24 33 13 18 1025.6 1025.8 0.0
27/10:00am 11.3 5.5 6.2 71 2.4 SSW 26 33 14 18 1025.5 1025.7 0.0
27/09:30am 10.9 5.9 6.5 74 2.1 SSW 22 32 12 17 1025.0 1025.2 0.0
27/09:00am 10.2 4.8 6.5 78 1.7 SSW 24 32 13 17 1024.1 1024.4 0.0
27/08:30am 9.9 4.9 6.4 79 1.6 SSW 22 28 12 15 1023.7 1024.0 0.0
27/08:00am 9.2 5.1 6.3 82 1.4 SSW 17 22 9 12 1023.2 1023.4 0.0
27/07:30am 9.1 3.6 6.0 81 1.4 SSW 24 30 13 16 1022.3 1022.5 0.0
27/07:00am 9.7 4.6 6.1 78 1.7 SSW 22 28 12 15 1021.8 1022.0 0.0
27/06:30am 10.3 4.1 6.3 76 1.9 SSW 28 37 15 20 1021.4 1021.6 0.0
27/06:00am 10.4 4.2 6.0 74 2.1 SW 28 39 15 21 1021.0 1021.2 0.0
27/05:30am 10.0 5.5 6.3 78 1.7 SSW 19 26 10 14 1021.0 1021.2 0.0
27/05:02am 10.5 4.4 6.6 77 1.9 SW 28 46 15 25 1020.0 1020.2 0.0
27/05:00am 10.4 4.3 6.7 78 1.8 SW 28 35 15 19 1020.2 1020.4 0.0
27/04:30am 10.5 3.9 7.7 83 1.4 SW 32 44 17 24 1019.7 1019.9 0.0
27/04:00am 10.6 5.5 7.5 81 1.5 SW 24 39 13 21 1020.0 1020.2 0.0
27/03:30am 10.5 4.4 6.8 78 1.8 SW 28 39 15 21 1019.6 1019.8 0.0
27/03:00am 10.0 3.7 8.8 92 0.6 SW 32 44 17 24 1019.4 1019.6 0.0
27/02:48am 10.6 4.0 7.8 83 1.4 WSW 32 50 17 27 1019.6 1019.8 0.0
27/02:30am 11.2 4.1 6.5 73 2.2 WSW 33 50 18 27 1019.8 1020.0 0.0
27/02:00am 11.8 3.6 4.5 61 3.4 WSW 37 56 20 30 1019.6 1019.8 0.0
27/01:42am 12.1 4.7 3.9 57 3.7 WSW 32 50 17 27 1019.6 1019.8 0.0
27/01:30am 12.2 4.2 3.7 56 3.8 WSW 35 52 19 28 1019.5 1019.7 0.0
27/01:08am 12.5 3.8 4.2 57 3.8 WSW 39 57 21 31 1019.3 1019.5 0.0
27/01:00am 12.6 2.9 4.1 56 3.9 WSW 44 59 24 32 1019.3 1019.5 0.0
27/12:36am 12.7 4.0 3.9 55 4.0 WSW 39 57 21 31 1019.6 1019.8 0.0
27/12:30am 12.6 3.8 3.6 54 4.1 WSW 39 56 21 30 1019.7 1019.9 0.0
27/12:00am 12.8 5.1 3.5 53 4.2 WSW 33 44 18 24 1019.8 1020.0 0.0
 
Date/Time
CST
Temp
°C
App
Temp
°C
Dew
Point
°C
Rel
Hum
%
Delta-T
°C
Wind Press
QNH
hPa
Press
MSL
hPa
Rain since
9am
mm
Dir  Spd
km/h
Gust
km/h
Spd
kts
Gust
kts
26/11:30pm 12.9 5.2 3.6 53 4.2 WSW 33 48 18 26 1020.0 1020.2 0.0
26/11:00pm 13.4 5.9 3.5 51 4.5 W 32 44 17 24 1019.9 1020.1 0.0
26/10:30pm 13.5 7.5 3.6 51 4.5 W 24 35 13 19 1019.7 1019.9 0.0
26/10:00pm 13.3 7.4 3.7 52 4.4 WSW 24 37 13 20 1019.6 1019.8 0.0
26/09:30pm 13.3 7.4 3.7 52 4.4 WSW 24 32 13 17 1019.7 1019.9 0.0
26/09:00pm 13.3 6.9 3.4 51 4.5 WSW 26 37 14 20 1019.6 1019.8 0.0
26/08:30pm 13.6 6.4 3.1 49 4.7 WSW 30 41 16 22 1019.2 1019.4 0.0
26/08:00pm 13.4 7.1 3.5 51 4.5 WSW 26 33 14 18 1019.2 1019.4 0.0
26/07:30pm 13.8 7.4 3.3 49 4.8 WSW 26 35 14 19 1018.9 1019.1 0.0
26/07:00pm 14.0 8.1 4.0 51 4.6 WSW 24 37 13 20 1018.7 1018.9 0.0
26/06:30pm 14.4 8.5 4.1 50 4.8 WSW 24 33 13 18 1018.3 1018.5 0.0
26/06:00pm 14.7 8.4 3.8 48 5.0 W 26 35 14 19 1018.1 1018.3 0.0
26/05:30pm 15.2 7.7 3.4 45 5.4 W 32 44 17 24 1017.9 1018.1 0.0
26/05:00pm 15.9 9.2 3.7 44 5.7 W 28 41 15 22 1017.7 1017.9 0.0
26/04:30pm 16.4 9.7 3.8 43 5.9 W 28 39 15 21 1017.6 1017.8 0.0
26/04:04pm 16.8 10.0 3.1 40 6.4 W 28 50 15 27 1017.7 1017.9 0.0
26/04:00pm 16.8 10.4 3.1 40 6.4 WNW 26 44 14 24 1017.7 1017.9 0.0
26/03:30pm 16.7 10.1 4.4 44 5.9 W 28 43 15 23 1017.7 1017.9 0.0
26/03:00pm 16.8 10.3 4.8 45 5.8 W 28 39 15 21 1018.0 1018.2 0.0
26/02:30pm 16.8 11.6 5.4 47 5.5 W 22 35 12 19 1018.0 1018.2 0.0
26/02:00pm 16.6 10.1 4.9 46 5.6 W 28 43 15 23 1018.6 1018.8 0.0
26/01:30pm 15.8 9.4 5.4 50 5.0 W 28 39 15 21 1019.1 1019.3 0.0
26/01:00pm 15.8 10.1 5.1 49 5.1 WNW 24 35 13 19 1019.3 1019.5 0.0
26/12:30pm 14.9 9.9 6.5 57 4.1 WNW 22 32 12 17 1019.9 1020.1 0.0
26/12:00pm 14.6 10.1 6.9 60 3.8 WNW 20 33 11 18 1020.2 1020.4 0.0
26/11:30am 14.6 10.3 7.2 61 3.7 NW 19 26 10 14 1020.4 1020.6 0.0
26/11:00am 13.1 9.6 7.1 67 2.9 NNW 15 20 8 11 1020.9 1021.1 0.0
26/10:30am 13.2 9.2 6.8 65 3.1 N 17 22 9 12 1021.3 1021.5 0.0
26/10:00am 12.8 9.3 7.0 68 2.8 N 15 19 8 10 1021.6 1021.8 0.0
26/09:30am 11.1 7.0 6.3 72 2.3 N 17 19 9 10 1021.6 1021.8 0.0
26/09:00am 10.6 8.1 6.6 76 1.9 NNW 9 15 5 8 1021.5 1021.7 0.0
26/08:30am 8.8 6.5 5.7 81 1.4 N 7 9 4 5 1021.4 1021.6 0.0
26/08:00am 7.4 6.4 5.4 87 0.9 CALM 0 0 0 0 1021.0 1021.2 0.0
26/07:30am 6.6 5.4 4.6 87 0.9 CALM 0 0 0 0 1020.8 1021.0 0.0
26/07:00am 6.4 5.2 4.4 87 0.9 CALM 0 0 0 0 1020.4 1020.6 0.0
26/06:30am 6.9 5.8 4.9 87 0.9 CALM 0 0 0 0 1020.3 1020.5 0.0
26/06:00am 6.7 4.3 4.4 85 1.0 SW 6 9 3 5 1020.1 1020.3 0.0
26/05:30am 7.7 6.5 4.7 81 1.3 CALM 0 0 0 0 1019.9 1020.1 0.0
26/05:00am 9.2 6.6 5.9 80 1.5 SW 9 11 5 6 1019.7 1019.9 0.0
26/04:30am 9.2 6.5 5.6 78 1.7 WSW 9 11 5 6 1019.5 1019.7 0.0
26/04:00am 9.8 6.7 5.6 75 1.9 WSW 11 13 6 7 1019.6 1019.8 0.0
26/03:30am 9.4 5.8 5.2 75 1.9 SW 13 15 7 8 1019.7 1019.9 0.0
26/03:00am 10.9 7.1 5.7 70 2.4 SW 15 17 8 9 1019.8 1020.0 0.0
26/02:30am 11.7 7.9 5.8 67 2.8 WSW 15 17 8 9 1019.9 1020.1 0.0
26/02:00am 12.3 7.5 5.5 63 3.2 WSW 20 30 11 16 1020.0 1020.2 0.0
26/01:30am 12.4 8.1 5.3 62 3.3 WSW 17 20 9 11 1020.1 1020.3 0.0
26/01:00am 12.3 8.8 5.5 63 3.2 WSW 13 17 7 9 1020.2 1020.4 0.0
26/12:30am 12.6 8.0 5.5 62 3.3 WSW 19 24 10 13 1020.3 1020.5 0.0
26/12:00am 11.8 8.4 5.7 66 2.9 WSW 13 19 7 10 1020.5 1020.8 0.0
 
Date/Time
CST
Temp
°C
App
Temp
°C
Dew
Point
°C
Rel
Hum
%
Delta-T
°C
Wind Press
QNH
hPa
Press
MSL
hPa
Rain since
9am
mm
Dir  Spd
km/h
Gust
km/h
Spd
kts
Gust
kts
25/11:30pm 10.8 7.6 5.3 69 2.5 W 11 13 6 7 1020.8 1021.0 0.0
25/11:00pm 10.2 7.0 5.0 70 2.4 W 11 13 6 7 1020.9 1021.1 0.0
25/10:30pm 10.6 7.0 4.9 68 2.6 W 13 15 7 8 1021.0 1021.2 0.0
25/10:00pm 10.3 7.0 4.7 68 2.6 WNW 11 13 6 7 1020.9 1021.1 0.0
25/09:30pm 11.0 8.1 4.9 66 2.8 WNW 9 11 5 6 1021.0 1021.2 0.0
25/09:00pm 12.1 8.5 4.8 61 3.4 W 13 19 7 10 1020.9 1021.1 0.0
25/08:30pm 12.6 9.0 5.1 60 3.5 WSW 13 20 7 11 1020.8 1021.0 0.0
25/08:00pm 12.9 9.3 4.8 58 3.8 WSW 13 17 7 9 1020.9 1021.1 0.0
25/07:30pm 12.2 8.2 4.7 60 3.5 WSW 15 20 8 11 1020.9 1021.1 0.0
25/07:00pm 12.0 8.7 4.5 60 3.5 W 11 17 6 9 1020.7 1020.9 0.0
25/06:30pm 12.6 8.5 4.3 57 3.8 W 15 22 8 12 1020.3 1020.5 0.0
25/06:00pm 12.9 8.4 4.3 56 4.0 W 17 24 9 13 1020.0 1020.2 0.0
25/05:30pm 13.5 8.6 4.1 53 4.3 W 19 26 10 14 1019.7 1019.9 0.0
25/05:00pm 14.2 8.7 4.2 51 4.7 W 22 30 12 16 1019.8 1020.0 0.0
25/04:30pm 14.6 9.5 4.3 50 4.8 W 20 32 11 17 1019.8 1020.0 0.0
25/04:00pm 14.7 9.9 4.7 51 4.7 W 19 26 10 14 1019.9 1020.1 0.0
25/03:30pm 14.9 9.1 4.3 49 5.0 W 24 32 13 17 1020.1 1020.3 0.0
25/03:00pm 14.1 8.9 3.8 50 4.7 WSW 20 32 11 17 1020.4 1020.6 0.0
25/02:30pm 14.3 9.1 3.7 49 4.9 W 20 32 11 17 1020.5 1020.8 0.0
25/02:00pm 14.3 9.8 4.0 50 4.8 W 17 24 9 13 1020.7 1020.9 0.0
25/01:30pm 14.1 9.2 4.1 51 4.6 W 19 26 10 14 1021.0 1021.2 0.0
25/01:00pm 13.1 8.7 4.8 57 3.9 W 17 24 9 13 1021.4 1021.6 0.0
25/12:30pm 12.7 8.3 4.9 59 3.6 W 17 26 9 14 1022.1 1022.3 0.0
25/12:00pm 13.1 8.8 5.3 59 3.7 WNW 17 26 9 14 1022.7 1022.9 0.0
25/11:30am 12.4 8.9 5.3 62 3.3 WSW 13 19 7 10 1022.9 1023.1 0.0
25/11:00am 11.6 7.7 5.5 66 2.9 WSW 15 19 8 10 1023.2 1023.4 0.0
25/10:30am 10.9 8.6 5.0 67 2.7 WSW 6 9 3 5 1023.4 1023.6 0.0
25/10:00am 11.1 9.0 5.6 69 2.6 WNW 6 11 3 6 1023.5 1023.7 0.0
25/09:30am 10.3 9.3 5.7 73 2.1 CALM 0 0 0 0 1023.1 1023.3 0.0
25/09:00am 9.2 6.9 5.0 75 1.9 SSW 6 9 3 5 1022.7 1022.9 0.0
25/08:30am 8.0 6.9 4.9 81 1.4 CALM 0 0 0 0 1022.4 1022.6 0.0
25/08:00am 5.7 4.4 4.2 90 0.6 CALM 0 0 0 0 1022.3 1022.5 0.0
25/07:30am 4.1 2.5 2.6 90 0.6 CALM 0 0 0 0 1021.8 1022.0 0.0
25/07:00am 4.5 3.0 3.0 90 0.6 CALM 0 0 0 0 1021.5 1021.7 0.0
25/06:30am 4.7 1.5 3.0 89 0.7 SSW 9 13 5 7 1021.0 1021.2 0.0
25/06:00am 5.2 0.9 3.5 89 0.7 S 15 17 8 9 1020.7 1020.9 0.0
25/05:30am 5.8 1.9 3.6 86 0.9 S 13 15 7 8 1020.1 1020.3 0.0
25/05:00am 6.1 3.0 3.6 84 1.1 S 9 13 5 7 1019.9 1020.1 0.0
25/04:30am 6.3 2.8 3.5 82 1.2 S 11 17 6 9 1019.6 1019.8 0.0
25/04:00am 7.4 4.0 3.8 78 1.6 S 11 17 6 9 1019.6 1019.8 0.0
25/03:30am 8.3 3.3 3.8 73 2.0 SW 19 30 10 16 1019.5 1019.7 0.0
25/03:00am 8.8 2.9 4.0 72 2.1 SW 24 33 13 18 1019.4 1019.6 0.0
25/02:30am 8.9 2.6 3.7 70 2.3 SW 26 39 14 21 1019.7 1019.9 0.0
25/02:00am 9.1 2.7 3.3 67 2.5 SW 26 37 14 20 1019.7 1019.9 0.0
25/01:34am 9.3 2.5 3.3 66 2.6 WSW 28 46 15 25 1019.7 1019.9 0.0
25/01:30am 9.3 3.3 3.1 65 2.7 WSW 24 35 13 19 1019.9 1020.1 0.0
25/01:00am 9.5 3.4 3.0 64 2.8 SW 24 35 13 19 1019.8 1020.0 0.0
25/12:30am 9.6 3.9 2.7 62 3.0 SW 22 41 12 22 1019.9 1020.1 0.0
25/12:00am 9.8 3.6 2.4 60 3.2 SW 24 35 13 19 1019.8 1020.0 0.0
 
Date/Time
CST
Temp
°C
App
Temp
°C
Dew
Point
°C
Rel
Hum
%
Delta-T
°C
Wind Press
QNH
hPa
Press
MSL
hPa
Rain since
9am
mm
Dir  Spd
km/h
Gust
km/h
Spd
kts
Gust
kts
24/11:30pm 10.0 2.3 2.1 58 3.4 SW 32 46 17 25 1019.6 1019.8 0.0
24/11:00pm 10.2 3.1 1.1 53 3.8 SW 28 39 15 21 1019.9 1020.1 0.0
24/10:30pm 10.7 2.8 1.0 51 4.1 SW 32 46 17 25 1020.1 1020.3 0.0
24/10:00pm 10.9 3.8 1.2 51 4.1 SW 28 41 15 22 1019.9 1020.1 0.0
24/09:30pm 11.2 3.7 1.5 51 4.1 SW 30 44 16 24 1019.8 1020.0 0.0
24/09:00pm 11.2 4.5 1.5 51 4.1 SW 26 37 14 20 1019.5 1019.7 0.0
24/08:30pm 11.4 5.5 1.6 51 4.2 SW 22 35 12 19 1019.4 1019.6 0.0
24/08:00pm 11.8 5.6 2.0 51 4.3 WSW 24 35 13 19 1019.1 1019.3 0.0
24/07:30pm 11.8 4.9 2.3 52 4.1 WSW 28 46 15 25 1018.7 1018.9 0.0
24/07:26pm 11.9 4.9 2.1 51 4.3 WSW 28 46 15 25 1018.6 1018.8 0.0

Other Formats:

Comma delimited format used in spreadsheet applications
http://www.bom.gov.au/fwo/IDS60801/IDS60801.94674.axf

JavaScript Object Notation format (JSON) in row-major order
http://www.bom.gov.au/fwo/IDS60801/IDS60801.94674.json